Time;durP1;ratioP1;P1;durP2;ratioP2;P2;SDS_P1;SDS_P2;PMS_P1;PMS_P2;Temp;Humidity;BMP_temperature;BMP_pressure;BME280_temperature;BME280_humidity;BME280_pressure;Samples;Min_cycle;Max_cycle;Signal;HPM_P1;HPM_P2
2021/04/30 00:00:40;;;;;;;13.00;9.25;;;9.60;98.40;;;;;;5032098;28;20026;-75
2021/04/30 00:03:05;;;;;;;13.70;9.05;;;9.40;98.80;;;;;;5032308;28;20059;-75
2021/04/30 00:05:32;;;;;;;12.73;8.75;;;9.50;98.80;;;;;;5032155;28;20026;-76
2021/04/30 00:07:58;;;;;;;12.55;9.25;;;9.60;98.70;;;;;;5032565;28;20533;-76
2021/04/30 00:10:25;;;;;;;13.70;8.88;;;9.70;98.50;;;;;;5031779;28;20073;-76
2021/04/30 00:12:51;;;;;;;13.25;9.45;;;9.70;98.60;;;;;;5031867;28;20095;-76
2021/04/30 00:15:17;;;;;;;13.65;9.40;;;9.70;98.80;;;;;;5031812;28;20049;-76
2021/04/30 00:17:43;;;;;;;12.93;9.50;;;9.60;99.00;;;;;;5031918;28;20499;-76
2021/04/30 00:20:11;;;;;;;15.27;9.95;;;9.50;99.30;;;;;;5033454;28;20109;-76
2021/04/30 00:22:37;;;;;;;14.88;10.35;;;9.50;99.50;;;;;;5030818;28;20046;-75
2021/04/30 00:25:04;;;;;;;14.52;10.07;;;9.50;99.70;;;;;;5031535;28;20064;-76
2021/04/30 00:27:30;;;;;;;14.48;10.13;;;9.60;99.40;;;;;;5030560;28;20046;-76
2021/04/30 00:29:55;;;;;;;14.57;10.55;;;9.60;99.30;;;;;;5031980;28;20160;-74
2021/04/30 00:32:21;;;;;;;14.88;10.38;;;9.50;99.60;;;;;;5031554;28;20068;-76
2021/04/30 00:34:47;;;;;;;16.83;10.35;;;9.50;99.60;;;;;;5033388;28;20034;-75
2021/04/30 00:37:13;;;;;;;14.27;10.30;;;9.50;99.70;;;;;;5030851;28;20033;-75
2021/04/30 00:39:39;;;;;;;15.73;11.02;;;9.50;99.70;;;;;;5031344;28;20302;-75
2021/04/30 00:42:05;;;;;;;16.42;11.23;;;9.60;99.60;;;;;;5031441;28;20049;-75
2021/04/30 00:44:31;;;;;;;14.13;10.82;;;9.60;99.80;;;;;;5031418;28;20021;-75
2021/04/30 00:46:57;;;;;;;15.10;11.25;;;9.50;99.90;;;;;;5032957;28;20095;-75
2021/04/30 00:49:23;;;;;;;15.60;11.30;;;9.60;99.90;;;;;;5031685;28;20144;-75
2021/04/30 00:51:49;;;;;;;14.32;10.20;;;9.50;99.90;;;;;;5031615;28;20719;-75
2021/04/30 00:54:15;;;;;;;15.88;10.93;;;9.50;99.90;;;;;;5031254;28;20076;-75
2021/04/30 00:56:41;;;;;;;17.23;12.20;;;9.50;99.90;;;;;;5031040;28;20041;-75
2021/04/30 00:59:07;;;;;;;16.50;11.52;;;9.50;99.90;;;;;;5032717;28;20356;-74
2021/04/30 01:01:33;;;;;;;14.80;11.20;;;9.50;99.90;;;;;;5030933;28;20040;-75
2021/04/30 01:03:58;;;;;;;14.63;11.23;;;9.60;99.90;;;;;;5030341;28;20037;-77
2021/04/30 01:06:24;;;;;;;14.25;10.70;;;9.60;99.90;;;;;;5031264;28;20049;-76
2021/04/30 01:08:50;;;;;;;16.45;11.73;;;9.60;99.90;;;;;;5030798;28;20479;-75
2021/04/30 01:11:16;;;;;;;21.25;12.80;;;9.60;99.90;;;;;;5030937;28;20078;-76
2021/04/30 01:13:41;;;;;;;15.70;11.63;;;9.60;99.90;;;;;;5032425;28;20022;-76
2021/04/30 01:16:08;;;;;;;17.88;12.10;;;9.50;99.90;;;;;;5030840;28;20517;-75
2021/04/30 01:19:00;;;;;;;16.15;12.20;;;9.70;99.90;;;;;;5030571;28;20111;-77
2021/04/30 01:21:26;;;;;;;18.58;12.20;;;9.50;99.90;;;;;;5031447;28;20112;-76
2021/04/30 01:23:53;;;;;;;18.67;12.15;;;9.60;99.90;;;;;;5030691;28;20418;-77
2021/04/30 01:26:20;;;;;;;19.25;12.63;;;9.70;99.90;;;;;;5029702;28;20028;-75
2021/04/30 01:28:47;;;;;;;15.38;11.60;;;9.70;99.90;;;;;;5032252;28;20022;-75
2021/04/30 01:31:17;;;;;;;15.93;12.10;;;9.80;99.90;;;;;;5030427;28;20422;-75
2021/04/30 01:33:43;;;;;;;17.55;12.07;;;9.80;99.90;;;;;;5030290;28;20507;-75
2021/04/30 01:36:09;;;;;;;21.85;14.02;;;9.80;99.90;;;;;;5030129;28;20034;-76
2021/04/30 01:38:34;;;;;;;16.65;11.25;;;9.80;99.90;;;;;;5030276;28;20029;-76
2021/04/30 01:41:00;;;;;;;17.80;12.82;;;9.70;99.90;;;;;;5031853;28;20037;-75
2021/04/30 01:43:26;;;;;;;18.95;13.20;;;9.80;99.90;;;;;;5029031;28;20128;-75
2021/04/30 01:46:06;;;;;;;17.45;12.90;;;9.70;99.90;;;;;;5030096;28;20073;-76
2021/04/30 01:48:33;;;;;;;20.35;14.50;;;9.80;99.90;;;;;;5029988;28;20364;-75
2021/04/30 01:51:02;;;;;;;22.60;15.15;;;9.60;99.90;;;;;;5030377;28;20033;-75
2021/04/30 01:53:30;;;;;;;20.75;13.85;;;9.70;99.90;;;;;;5029251;28;20033;-75
2021/04/30 01:55:56;;;;;;;20.65;14.02;;;9.70;99.90;;;;;;5030449;28;20415;-75
2021/04/30 01:58:23;;;;;;;20.83;14.73;;;9.80;99.90;;;;;;5029879;28;20046;-75
2021/04/30 02:00:50;;;;;;;21.80;15.82;;;9.90;99.90;;;;;;5029879;28;20040;-75
2021/04/30 02:03:15;;;;;;;23.05;16.33;;;9.90;99.90;;;;;;5030097;28;20419;-75
2021/04/30 02:05:42;;;;;;;21.02;15.75;;;9.80;99.90;;;;;;5029099;28;20053;-76
2021/04/30 02:08:10;;;;;;;24.98;16.92;;;10.00;99.90;;;;;;5030922;28;20017;-75
2021/04/30 02:10:38;;;;;;;25.02;17.25;;;9.90;99.90;;;;;;5029640;28;20038;-75
2021/04/30 02:13:04;;;;;;;25.47;17.30;;;10.00;99.90;;;;;;5029554;28;20459;-75
2021/04/30 02:15:33;;;;;;;25.08;17.20;;;10.10;99.90;;;;;;5028796;28;20042;-77
2021/04/30 02:17:58;;;;;;;26.35;17.52;;;10.20;99.90;;;;;;5029763;28;20395;-76
2021/04/30 02:20:25;;;;;;;24.40;15.98;;;10.00;99.90;;;;;;5029461;28;20037;-75
2021/04/30 02:22:52;;;;;;;26.25;17.23;;;10.10;99.90;;;;;;5031225;28;20105;-76
2021/04/30 02:25:20;;;;;;;23.25;16.42;;;10.10;99.90;;;;;;5029413;28;20045;-76
2021/04/30 02:27:47;;;;;;;24.83;17.02;;;10.20;99.90;;;;;;5029377;28;20116;-76
2021/04/30 02:30:15;;;;;;;23.63;16.60;;;10.20;99.90;;;;;;5029758;28;20388;-76
2021/04/30 02:32:42;;;;;;;25.73;17.88;;;10.20;99.80;;;;;;5029594;28;20038;-76
2021/04/30 02:35:12;;;;;;;27.02;16.90;;;10.20;99.80;;;;;;5031316;28;20030;-76
2021/04/30 02:37:39;;;;;;;26.05;18.08;;;10.20;99.70;;;;;;5029297;28;20428;-76
2021/04/30 02:40:06;;;;;;;27.92;18.42;;;10.30;99.60;;;;;;5029378;28;20044;-76
2021/04/30 02:42:32;;;;;;;23.55;17.70;;;10.20;99.60;;;;;;5029195;28;20163;-76
2021/04/30 02:45:01;;;;;;;24.40;17.65;;;10.20;99.80;;;;;;5029241;28;20124;-77
2021/04/30 02:47:30;;;;;;;25.45;17.05;;;10.20;99.50;;;;;;5029222;28;20025;-76
2021/04/30 02:49:57;;;;;;;23.70;17.30;;;10.20;99.40;;;;;;5030689;28;20021;-77
2021/04/30 02:52:23;;;;;;;27.42;18.05;;;10.20;99.20;;;;;;5029391;28;20056;-76
2021/04/30 02:54:49;;;;;;;24.95;17.58;;;10.30;99.30;;;;;;5029104;28;20104;-75
2021/04/30 02:57:14;;;;;;;29.95;17.73;;;10.30;99.20;;;;;;5028011;28;20045;-77
2021/04/30 02:59:40;;;;;;;25.70;17.73;;;10.20;99.10;;;;;;5028211;28;20037;-75
2021/04/30 03:02:06;;;;;;;25.95;17.25;;;10.20;99.10;;;;;;5029680;28;20064;-76
2021/04/30 03:04:31;;;;;;;24.85;17.48;;;10.20;99.10;;;;;;5029223;28;20041;-75
2021/04/30 03:06:57;;;;;;;25.45;17.55;;;10.30;99.00;;;;;;5029213;28;20037;-76
2021/04/30 03:09:23;;;;;;;26.77;17.13;;;10.20;99.00;;;;;;5028094;28;20033;-77
2021/04/30 03:11:48;;;;;;;24.60;17.63;;;10.20;99.00;;;;;;5027905;28;20099;-75
2021/04/30 03:14:14;;;;;;;25.48;17.65;;;10.20;98.90;;;;;;5028543;28;20049;-75
2021/04/30 03:16:40;;;;;;;25.30;18.08;;;10.20;98.90;;;;;;5030496;28;20040;-76
2021/04/30 03:19:05;;;;;;;25.23;17.20;;;10.30;98.90;;;;;;5028780;28;20525;-76
2021/04/30 03:21:31;;;;;;;25.60;17.90;;;10.30;98.90;;;;;;5029085;28;20042;-76
2021/04/30 03:23:57;;;;;;;24.85;18.27;;;10.30;98.80;;;;;;5028789;28;20080;-77
2021/04/30 03:26:22;;;;;;;24.02;16.80;;;10.30;98.80;;;;;;5031497;28;20109;-76
2021/04/30 03:28:48;;;;;;;25.95;17.65;;;10.30;98.80;;;;;;5033372;28;20021;-77
2021/04/30 03:31:14;;;;;;;24.17;17.73;;;10.20;98.70;;;;;;5031953;28;20428;-76
2021/04/30 03:33:40;;;;;;;30.88;18.67;;;10.30;98.80;;;;;;5032637;28;20266;-76
2021/04/30 03:36:06;;;;;;;28.58;19.95;;;10.10;98.80;;;;;;5032478;28;20042;-76
2021/04/30 03:38:33;;;;;;;27.52;18.42;;;10.20;98.80;;;;;;5031591;28;20410;-76
2021/04/30 03:40:59;;;;;;;25.35;18.33;;;10.20;98.70;;;;;;5034041;28;20020;-75
2021/04/30 03:43:24;;;;;;;28.50;18.98;;;10.30;98.80;;;;;;5032537;28;20383;-75
2021/04/30 03:45:50;;;;;;;27.17;19.52;;;10.20;98.80;;;;;;5032499;28;20103;-76
2021/04/30 03:48:22;;;;;;;26.60;19.30;;;10.20;98.70;;;;;;5032322;28;20057;-76
2021/04/30 03:50:48;;;;;;;33.60;21.02;;;10.30;98.70;;;;;;5032363;28;20041;-76
2021/04/30 03:53:14;;;;;;;33.55;21.02;;;10.30;98.60;;;;;;5032422;28;20167;-76
2021/04/30 03:55:40;;;;;;;31.65;20.58;;;10.30;98.60;;;;;;5033800;28;20112;-75
2021/04/30 03:58:06;;;;;;;31.45;21.92;;;10.30;98.60;;;;;;5032342;28;20046;-76
2021/04/30 04:00:31;;;;;;;32.22;21.73;;;10.30;98.50;;;;;;5032068;28;20042;-77
2021/04/30 04:02:57;;;;;;;32.50;21.00;;;10.30;98.60;;;;;;5032329;28;20039;-77
2021/04/30 04:05:23;;;;;;;32.63;20.55;;;10.30;98.60;;;;;;5032234;28;20678;-75
2021/04/30 04:07:48;;;;;;;36.05;21.23;;;10.40;98.60;;;;;;5032348;28;20481;-76
2021/04/30 04:10:14;;;;;;;33.70;20.25;;;10.30;98.50;;;;;;5031778;28;20052;-76
2021/04/30 04:12:40;;;;;;;32.83;21.08;;;10.40;98.50;;;;;;5030605;28;20040;-76
2021/04/30 04:15:07;;;;;;;35.67;21.77;;;10.30;98.50;;;;;;5031848;28;20025;-75
2021/04/30 04:17:32;;;;;;;30.40;20.92;;;10.30;98.60;;;;;;5031902;28;20014;-76
2021/04/30 04:19:58;;;;;;;34.58;22.42;;;10.20;98.60;;;;;;5033574;28;20032;-76
2021/04/30 04:22:24;;;;;;;29.50;21.10;;;10.30;98.60;;;;;;5031689;28;20036;-76
2021/04/30 04:24:50;;;;;;;34.13;22.10;;;10.40;98.50;;;;;;5031273;28;20053;-76
2021/04/30 04:27:16;;;;;;;29.33;21.23;;;10.40;98.50;;;;;;5031357;28;20038;-76
2021/04/30 04:29:41;;;;;;;35.00;22.70;;;10.40;98.50;;;;;;5030284;28;20033;-76
2021/04/30 04:32:07;;;;;;;34.95;22.33;;;10.20;98.70;;;;;;5033029;28;20036;-76
2021/04/30 04:34:33;;;;;;;32.08;22.00;;;10.30;98.60;;;;;;5031626;28;20030;-76
2021/04/30 04:36:58;;;;;;;32.08;21.98;;;10.40;98.60;;;;;;5030608;28;20110;-76
2021/04/30 04:39:29;;;;;;;32.75;21.95;;;10.30;98.50;;;;;;5031264;28;20454;-77
2021/04/30 04:41:55;;;;;;;36.22;23.52;;;10.40;98.60;;;;;;5031223;28;20037;-76
2021/04/30 04:44:21;;;;;;;35.80;23.05;;;10.30;98.50;;;;;;5031200;28;20578;-77
2021/04/30 04:46:47;;;;;;;38.13;23.35;;;10.30;98.60;;;;;;5032865;28;20136;-77
2021/04/30 04:49:12;;;;;;;32.45;21.80;;;10.30;98.60;;;;;;5031173;28;20491;-75
2021/04/30 04:51:38;;;;;;;40.45;23.30;;;10.40;98.50;;;;;;5031217;28;20037;-76
2021/04/30 04:54:06;;;;;;;35.65;23.38;;;10.40;98.40;;;;;;5030941;28;20037;-76
2021/04/30 04:56:32;;;;;;;32.78;23.15;;;10.40;98.50;;;;;;5029583;28;20026;-76
2021/04/30 04:58:58;;;;;;;35.35;23.00;;;10.40;98.50;;;;;;5032602;28;20359;-77
2021/04/30 05:01:25;;;;;;;39.10;23.30;;;10.40;98.50;;;;;;5030853;28;20133;-75
2021/04/30 05:03:50;;;;;;;41.20;25.40;;;10.40;98.40;;;;;;5029659;28;20065;-76
2021/04/30 05:06:16;;;;;;;36.85;24.27;;;10.40;98.40;;;;;;5031117;28;20486;-76
2021/04/30 05:08:42;;;;;;;35.33;23.92;;;10.40;98.40;;;;;;5025378;28;20400;-76
2021/04/30 05:11:08;;;;;;;38.22;24.10;;;10.40;98.40;;;;;;5012449;28;20040;-76
2021/04/30 05:13:34;;;;;;;41.78;24.70;;;10.30;98.60;;;;;;5029897;28;20106;-76
2021/04/30 05:16:01;;;;;;;37.08;25.52;;;10.40;98.70;;;;;;5014740;28;20456;-76
2021/04/30 05:18:27;;;;;;;38.85;24.63;;;10.40;98.50;;;;;;5021132;28;20042;-78
2021/04/30 05:20:53;;;;;;;38.35;24.85;;;10.50;98.40;;;;;;5030536;28;20368;-75
2021/04/30 05:23:20;;;;;;;47.08;25.67;;;10.50;98.30;;;;;;5029941;28;20028;-75
2021/04/30 05:25:48;;;;;;;35.85;23.30;;;10.60;98.30;;;;;;5032033;28;20631;-76
2021/04/30 05:28:14;;;;;;;39.90;24.98;;;10.60;98.40;;;;;;5030059;28;20033;-77
2021/04/30 05:30:39;;;;;;;41.38;25.50;;;10.70;98.30;;;;;;5029098;28;20130;-77
2021/04/30 05:33:05;;;;;;;37.95;24.90;;;10.60;98.40;;;;;;5030231;28;20075;-77
2021/04/30 05:35:31;;;;;;;36.92;24.38;;;10.50;98.50;;;;;;5029397;28;20032;-75
2021/04/30 05:37:57;;;;;;;36.00;24.20;;;10.50;98.40;;;;;;5031859;28;20033;-76
2021/04/30 05:40:23;;;;;;;40.30;25.83;;;10.50;98.50;;;;;;5030090;28;20352;-75
2021/04/30 05:42:49;;;;;;;42.25;27.38;;;10.30;98.60;;;;;;5030654;28;20029;-76
2021/04/30 05:45:15;;;;;;;42.72;26.77;;;10.30;98.80;;;;;;5029731;28;20418;-76
2021/04/30 05:47:40;;;;;;;41.38;26.77;;;10.30;98.90;;;;;;5030088;28;20067;-77
2021/04/30 05:50:07;;;;;;;43.17;27.23;;;10.20;98.90;;;;;;5029919;28;20035;-76
2021/04/30 05:52:33;;;;;;;44.30;28.55;;;10.20;98.90;;;;;;5027922;28;20065;-76
2021/04/30 05:54:59;;;;;;;39.75;26.35;;;10.30;98.90;;;;;;5029696;28;20079;-77
2021/04/30 05:57:25;;;;;;;48.15;29.77;;;10.40;98.80;;;;;;5029133;28;20045;-77
2021/04/30 05:59:50;;;;;;;44.47;27.85;;;10.40;98.90;;;;;;5029631;28;20064;-77
2021/04/30 06:02:16;;;;;;;42.78;28.13;;;10.40;98.90;;;;;;5029537;28;20021;-74
2021/04/30 06:04:41;;;;;;;44.03;27.67;;;10.40;98.90;;;;;;5029845;28;20371;-76
2021/04/30 06:07:07;;;;;;;44.13;27.73;;;10.20;99.20;;;;;;5029401;28;20069;-76
2021/04/30 06:09:33;;;;;;;41.10;27.75;;;10.30;99.10;;;;;;5029333;28;20044;-75
2021/04/30 06:11:58;;;;;;;47.55;27.85;;;10.40;99.10;;;;;;5029311;28;20038;-76
2021/04/30 06:14:30;;;;;;;51.42;29.60;;;10.40;99.10;;;;;;5029307;28;20120;-76
2021/04/30 06:16:56;;;;;;;43.20;29.15;;;10.40;99.00;;;;;;5029849;28;20124;-76
2021/04/30 06:19:22;;;;;;;46.03;28.80;;;10.40;99.00;;;;;;5029216;28;20041;-76
2021/04/30 06:21:48;;;;;;;49.15;31.10;;;10.30;99.10;;;;;;5029582;28;20034;-76
2021/04/30 06:24:14;;;;;;;50.10;30.90;;;10.30;99.00;;;;;;5029245;28;20478;-76
2021/04/30 06:26:39;;;;;;;52.83;30.33;;;10.30;99.00;;;;;;5028987;28;20094;-76
2021/04/30 06:29:05;;;;;;;45.88;29.65;;;10.30;99.10;;;;;;5030918;28;20071;-76
2021/04/30 06:31:31;;;;;;;47.85;29.85;;;10.40;99.00;;;;;;5028776;28;20033;-76
2021/04/30 06:33:56;;;;;;;50.83;29.73;;;10.40;99.00;;;;;;5029083;28;20344;-77
2021/04/30 06:36:22;;;;;;;55.25;30.95;;;10.40;99.00;;;;;;5027813;28;20038;-75
2021/04/30 06:38:47;;;;;;;47.10;29.67;;;10.40;98.90;;;;;;5029130;28;20025;-76
2021/04/30 06:41:14;;;;;;;43.90;29.38;;;10.40;98.90;;;;;;5029152;28;20132;-75
2021/04/30 06:43:39;;;;;;;47.50;29.08;;;10.60;98.80;;;;;;5030585;28;20576;-76
2021/04/30 06:46:05;;;;;;;46.22;29.42;;;10.60;98.60;;;;;;5028565;28;20049;-76
2021/04/30 06:48:31;;;;;;;47.53;30.85;;;10.60;98.60;;;;;;5028922;28;20080;-78
2021/04/30 06:50:56;;;;;;;49.97;29.35;;;10.70;98.70;;;;;;5028678;28;20030;-76
2021/04/30 06:53:22;;;;;;;48.38;30.13;;;10.50;98.60;;;;;;5028949;28;20328;-74
2021/04/30 06:55:48;;;;;;;45.58;29.48;;;10.60;98.70;;;;;;5030247;28;20029;-76
2021/04/30 06:58:13;;;;;;;42.88;29.20;;;10.70;98.70;;;;;;5028616;28;20368;-76
2021/04/30 07:00:39;;;;;;;47.67;29.50;;;10.70;98.50;;;;;;5030139;28;20121;-76
2021/04/30 07:03:05;;;;;;;47.05;29.20;;;10.80;98.60;;;;;;5032006;28;20483;-76
2021/04/30 07:05:30;;;;;;;45.33;28.92;;;10.90;98.40;;;;;;5031877;28;20026;-76
2021/04/30 07:08:00;;;;;;;51.55;30.50;;;11.00;98.20;;;;;;5034536;28;20099;-76
2021/04/30 07:10:26;;;;;;;44.42;29.17;;;11.10;98.10;;;;;;5032543;28;20108;-76
2021/04/30 07:12:52;;;;;;;45.88;29.20;;;11.10;97.70;;;;;;5031038;28;20141;-77
2021/04/30 07:15:18;;;;;;;42.58;27.63;;;11.10;97.70;;;;;;5031778;28;20080;-75
2021/04/30 07:17:44;;;;;;;44.05;28.38;;;11.10;97.50;;;;;;5032006;28;20029;-75
2021/04/30 07:20:10;;;;;;;43.03;27.08;;;11.10;97.40;;;;;;5034283;28;20018;-76
2021/04/30 07:22:36;;;;;;;50.13;27.85;;;11.10;97.40;;;;;;5032569;28;20494;-76
2021/04/30 07:25:02;;;;;;;40.65;28.20;;;11.20;97.40;;;;;;5016256;28;20054;-76
2021/04/30 07:27:28;;;;;;;46.00;27.63;;;11.30;97.20;;;;;;5021718;28;20033;-77
2021/04/30 07:29:53;;;;;;;43.75;28.27;;;11.40;97.30;;;;;;5032478;28;20561;-77
2021/04/30 07:32:19;;;;;;;41.72;27.30;;;11.60;97.10;;;;;;5032547;28;20029;-75
2021/04/30 07:34:45;;;;;;;40.28;26.80;;;11.80;96.80;;;;;;5034170;28;20033;-75
2021/04/30 07:37:11;;;;;;;44.58;27.35;;;12.00;96.60;;;;;;5032861;28;20049;-76
2021/04/30 07:39:36;;;;;;;40.92;25.67;;;12.20;96.40;;;;;;5020920;28;20030;-75
2021/04/30 07:42:03;;;;;;;44.35;26.05;;;12.40;96.10;;;;;;5019545;28;20451;-76
2021/04/30 07:44:29;;;;;;;36.40;25.45;;;12.60;95.90;;;;;;5031975;28;20025;-76
2021/04/30 07:46:55;;;;;;;37.20;24.35;;;12.90;95.30;;;;;;5032873;28;20359;-76
2021/04/30 07:49:21;;;;;;;37.78;25.40;;;13.20;95.00;;;;;;5032273;28;20037;-76
2021/04/30 07:51:46;;;;;;;36.25;24.02;;;13.70;94.60;;;;;;5030895;28;20045;-75
2021/04/30 07:54:12;;;;;;;34.92;22.63;;;14.10;93.80;;;;;;5032163;28;20037;-76
2021/04/30 07:56:38;;;;;;;27.42;20.15;;;14.30;93.10;;;;;;5031936;28;20184;-76
2021/04/30 07:59:04;;;;;;;29.10;19.50;;;14.20;92.50;;;;;;5033431;28;20060;-76
2021/04/30 08:01:30;;;;;;;29.45;19.17;;;14.10;92.00;;;;;;5031852;28;20084;-75
2021/04/30 08:03:55;;;;;;;29.75;19.73;;;13.90;91.80;;;;;;5031707;28;20069;-75
2021/04/30 08:06:21;;;;;;;23.55;18.42;;;13.60;92.10;;;;;;5032162;28;20036;-78
2021/04/30 08:08:47;;;;;;;27.00;18.30;;;13.70;92.20;;;;;;5031325;28;20032;-76
2021/04/30 08:11:12;;;;;;;29.38;19.80;;;13.50;92.20;;;;;;5032026;28;20025;-76
2021/04/30 08:13:38;;;;;;;30.70;18.08;;;13.40;92.30;;;;;;5030660;28;20124;-76
2021/04/30 08:16:04;;;;;;;33.17;19.63;;;13.30;92.40;;;;;;5031574;28;20033;-77
2021/04/30 08:18:30;;;;;;;32.05;19.73;;;13.30;92.40;;;;;;5031466;28;20033;-76
2021/04/30 08:20:56;;;;;;;26.08;18.45;;;13.20;92.60;;;;;;5031542;28;20033;-77
2021/04/30 08:23:22;;;;;;;29.05;19.90;;;13.10;92.50;;;;;;5031428;28;20333;-76
2021/04/30 08:25:47;;;;;;;32.30;20.08;;;13.00;92.50;;;;;;5033160;28;20025;-76
2021/04/30 08:28:13;;;;;;;29.45;20.05;;;13.00;92.60;;;;;;5031663;28;20099;-75
2021/04/30 08:30:39;;;;;;;29.00;20.92;;;12.90;92.80;;;;;;5031195;28;20042;-75
2021/04/30 08:33:05;;;;;;;34.30;19.75;;;12.90;93.00;;;;;;5031500;28;20574;-76
2021/04/30 08:35:30;;;;;;;25.63;17.63;;;12.90;92.90;;;;;;5030679;28;20021;-76
2021/04/30 08:37:57;;;;;;;28.13;18.70;;;12.80;92.60;;;;;;5032761;28;20032;-76
2021/04/30 08:40:22;;;;;;;29.67;17.85;;;12.80;92.70;;;;;;5030304;28;20065;-75
2021/04/30 08:42:50;;;;;;;24.55;17.38;;;12.70;92.50;;;;;;5030379;28;20088;-75
2021/04/30 08:45:16;;;;;;;27.13;16.77;;;13.10;92.70;;;;;;5030778;28;20057;-74
2021/04/30 08:47:44;;;;;;;24.77;17.40;;;13.60;92.30;;;;;;5030728;28;20119;-76
2021/04/30 08:50:11;;;;;;;24.17;17.25;;;14.50;91.70;;;;;;5032983;28;20053;-75
2021/04/30 08:52:38;;;;;;;23.58;15.98;;;15.60;90.60;;;;;;5030776;28;20033;-75
2021/04/30 08:55:09;;;;;;;22.75;16.45;;;16.20;88.30;;;;;;5030791;28;20034;-74
2021/04/30 08:57:35;;;;;;;24.60;17.70;;;16.20;85.90;;;;;;5030509;28;20041;-75
2021/04/30 09:00:02;;;;;;;21.80;16.35;;;16.20;86.10;;;;;;5024501;28;20026;-76
2021/04/30 09:02:32;;;;;;;24.98;16.42;;;16.00;86.10;;;;;;5011846;28;20032;-76
2021/04/30 09:04:58;;;;;;;28.85;16.98;;;15.80;87.10;;;;;;5032336;28;20032;-74
2021/04/30 09:07:25;;;;;;;32.00;17.27;;;15.50;86.90;;;;;;5030386;28;20048;-75
2021/04/30 09:10:09;;;;;;;20.95;16.27;;;15.20;87.50;;;;;;5029406;28;20079;-76
2021/04/30 09:12:35;;;;;;;22.17;16.77;;;14.90;87.70;;;;;;5030674;28;20041;-75
2021/04/30 09:15:04;;;;;;;22.15;15.07;;;14.60;88.20;;;;;;5030744;28;20049;-75
2021/04/30 09:17:29;;;;;;;23.67;15.50;;;14.30;88.20;;;;;;5029625;28;20117;-76
2021/04/30 09:20:02;;;;;;;23.02;14.60;;;14.20;88.60;;;;;;5032404;28;20033;-76
2021/04/30 09:22:37;;;;;;;19.80;14.23;;;14.00;89.00;;;;;;5030279;28;20034;-75
2021/04/30 09:25:11;;;;;;;24.50;14.32;;;13.70;89.40;;;;;;5028862;28;20045;-75
2021/04/30 09:27:46;;;;;;;21.48;14.00;;;13.60;90.00;;;;;;5030559;28;20430;-75
2021/04/30 09:30:25;;;;;;;23.10;14.77;;;13.50;89.90;;;;;;5030270;28;20451;-75
2021/04/30 09:33:02;;;;;;;23.88;16.23;;;13.50;90.20;;;;;;5030376;28;20029;-75
2021/04/30 09:35:29;;;;;;;23.75;14.82;;;13.40;90.40;;;;;;5028966;28;20113;-76
2021/04/30 09:37:57;;;;;;;23.38;15.38;;;13.30;90.30;;;;;;5031876;28;20036;-75
2021/04/30 09:40:31;;;;;;;21.40;14.20;;;13.30;90.70;;;;;;5030066;28;20373;-76
2021/04/30 09:43:05;;;;;;;23.85;14.63;;;13.20;90.30;;;;;;5029792;28;20107;-77
2021/04/30 09:45:32;;;;;;;19.35;13.65;;;13.20;90.40;;;;;;5029405;28;20033;-75
2021/04/30 09:47:59;;;;;;;21.73;14.15;;;13.20;90.20;;;;;;5029841;28;20463;-77
2021/04/30 09:50:27;;;;;;;29.60;16.15;;;13.20;90.40;;;;;;5029823;28;20120;-75
2021/04/30 09:52:56;;;;;;;;;;;13.20;90.70;;;;;;5032649;28;20010;-75
2021/04/30 09:55:36;;;;;;;24.38;16.42;;;13.10;90.80;;;;;;5029161;28;19909;-75
2021/04/30 09:58:11;;;;;;;20.77;15.05;;;13.10;91.20;;;;;;5028481;28;20034;-77
2021/04/30 10:00:37;;;;;;;22.52;15.38;;;13.00;91.20;;;;;;5029723;28;20287;-76
2021/04/30 10:03:15;;;;;;;21.83;14.85;;;13.10;91.20;;;;;;5029476;28;20029;-75
2021/04/30 10:06:02;;;;;;;26.55;15.68;;;12.80;91.10;;;;;;5029352;28;20037;-76
2021/04/30 10:08:29;;;;;;;25.17;17.08;;;12.90;91.30;;;;;;5029022;28;20021;-75
2021/04/30 10:10:55;;;;;;;23.48;16.17;;;12.90;91.40;;;;;;5029419;28;20120;-75
2021/04/30 10:13:20;;;;;;;21.33;16.08;;;12.90;91.40;;;;;;5028682;28;20137;-76
2021/04/30 10:15:46;;;;;;;22.50;15.23;;;12.90;91.40;;;;;;5028794;28;20689;-75
2021/04/30 10:18:16;;;;;;;21.95;15.32;;;12.90;91.50;;;;;;5028365;28;20041;-76
2021/04/30 10:20:42;;;;;;;20.80;14.10;;;12.90;91.20;;;;;;5029552;28;20112;-76
2021/04/30 10:23:14;;;;;;;21.75;14.20;;;12.90;91.10;;;;;;5029662;28;20041;-76
2021/04/30 10:25:42;;;;;;;23.48;15.00;;;12.90;91.10;;;;;;5029410;28;20056;-76
2021/04/30 10:28:08;;;;;;;;;;;12.90;91.20;;;;;;5029515;28;20049;-76
2021/04/30 10:30:39;;;;;;;20.23;14.75;;;12.90;91.20;;;;;;5029112;28;19930;-75
2021/04/30 10:33:23;;;;;;;27.92;18.42;;;12.90;91.10;;;;;;5029291;28;20136;-75
2021/04/30 10:35:49;;;;;;;32.85;21.25;;;12.90;91.10;;;;;;5027254;28;20140;-76
2021/04/30 10:38:18;;;;;;;20.35;14.50;;;12.90;91.00;;;;;;5029215;28;20140;-75
2021/04/30 10:41:00;;;;;;;23.42;15.20;;;12.80;91.10;;;;;;5030858;28;20045;-75
2021/04/30 10:43:27;;;;;;;24.30;14.88;;;12.70;91.00;;;;;;5028864;28;20084;-76
2021/04/30 10:46:12;;;;;;;21.17;15.63;;;12.70;91.10;;;;;;5029135;28;20048;-76
2021/04/30 10:49:17;;;;;;;20.90;14.80;;;12.80;91.40;;;;;;5027661;28;20045;-75
2021/04/30 10:52:06;;;;;;;25.08;15.45;;;12.80;91.10;;;;;;5028925;28;20088;-75
2021/04/30 10:54:39;;;;;;;22.65;14.63;;;12.80;90.90;;;;;;5028370;28;20033;-75
2021/04/30 10:57:15;;;;;;;20.38;14.30;;;12.70;91.10;;;;;;5027569;28;20095;-75
2021/04/30 10:59:45;;;;;;;19.80;14.38;;;12.70;91.10;;;;;;5028344;28;20037;-75
2021/04/30 11:02:31;;;;;;;25.52;16.25;;;12.70;91.10;;;;;;5030643;28;20080;-74
2021/04/30 11:05:06;;;;;;;21.08;14.68;;;12.70;91.20;;;;;;5027972;28;20092;-75
2021/04/30 11:07:52;;;;;;;23.67;14.93;;;12.80;91.10;;;;;;5027743;28;20095;-76
2021/04/30 11:10:20;;;;;;;21.42;14.15;;;12.70;90.80;;;;;;5028734;28;20061;-75
2021/04/30 11:13:06;;;;;;;19.75;13.68;;;12.70;90.90;;;;;;5027723;28;20472;-75
2021/04/30 11:15:45;;;;;;;30.17;19.25;;;12.70;90.90;;;;;;5027852;28;20049;-75
2021/04/30 11:18:18;;;;;;;25.25;16.10;;;12.70;90.90;;;;;;5028490;28;20026;-75
2021/04/30 11:20:55;;;;;;;21.40;14.40;;;12.70;91.10;;;;;;5027474;28;20078;-76
2021/04/30 11:23:26;;;;;;;22.83;15.17;;;12.70;91.10;;;;;;5028489;28;20054;-75
2021/04/30 11:25:57;;;;;;;19.00;13.82;;;12.70;91.10;;;;;;5030526;28;20285;-75
2021/04/30 11:28:43;;;;;;;20.10;13.75;;;12.70;91.00;;;;;;5028288;28;20164;-75
2021/04/30 11:31:10;;;;;;;18.10;12.48;;;12.80;91.20;;;;;;5027716;28;20107;-76
2021/04/30 11:33:44;;;;;;;21.73;13.63;;;12.80;90.90;;;;;;5027310;28;20370;-75
2021/04/30 11:36:12;;;;;;;19.38;13.77;;;12.90;91.00;;;;;;5028466;28;20048;-75
2021/04/30 11:38:39;;;;;;;;;;;12.90;90.80;;;;;;5028986;28;20041;-76
2021/04/30 11:41:06;;;;;;;23.42;13.65;;;12.90;90.80;;;;;;5030103;28;19909;-75
2021/04/30 11:43:33;;;;;;;20.33;13.97;;;12.90;90.60;;;;;;5027430;28;20371;-74
2021/04/30 11:45:59;;;;;;;21.23;12.02;;;13.00;90.60;;;;;;5028752;28;20049;-75
2021/04/30 11:48:29;;;;;;;18.92;11.93;;;13.00;90.40;;;;;;5031290;28;20037;-76
2021/04/30 11:51:09;;;;;;;17.10;12.80;;;13.00;90.30;;;;;;5032298;28;20080;-74
2021/04/30 11:53:38;;;;;;;15.85;11.40;;;13.10;90.20;;;;;;5032119;28;20049;-75
2021/04/30 11:56:05;;;;;;;14.25;11.00;;;13.10;89.90;;;;;;5032946;28;20037;-75
2021/04/30 11:58:50;;;;;;;15.85;10.88;;;13.10;89.00;;;;;;5031976;28;20041;-75
2021/04/30 12:01:16;;;;;;;17.88;11.23;;;12.90;89.50;;;;;;5032001;28;20082;-75
2021/04/30 12:03:43;;;;;;;17.15;11.63;;;12.90;89.00;;;;;;5031733;28;20038;-74
2021/04/30 12:06:14;;;;;;;16.38;10.48;;;13.00;89.10;;;;;;5032095;28;20030;-76
2021/04/30 12:08:48;;;;;;;18.67;10.88;;;12.90;88.80;;;;;;5031542;28;20044;-75
2021/04/30 12:11:31;;;;;;;15.48;10.52;;;12.90;89.00;;;;;;5031387;28;20045;-74
2021/04/30 12:14:06;;;;;;;14.50;10.45;;;12.90;88.60;;;;;;5033157;28;20045;-75
2021/04/30 12:16:32;;;;;;;14.82;10.57;;;12.90;88.60;;;;;;5031455;28;20045;-75
2021/04/30 12:19:01;;;;;;;14.80;9.85;;;12.90;88.80;;;;;;5031451;28;20036;-74
2021/04/30 12:21:34;;;;;;;15.23;11.13;;;12.90;89.00;;;;;;5031745;28;20126;-74
2021/04/30 12:24:02;;;;;;;20.20;13.18;;;12.90;89.10;;;;;;5031146;28;20049;-76
2021/04/30 12:26:32;;;;;;;18.88;12.55;;;12.90;88.80;;;;;;5030385;28;20022;-74
2021/04/30 12:29:00;;;;;;;16.33;10.88;;;13.00;88.80;;;;;;5032840;28;20104;-75
2021/04/30 12:31:27;;;;;;;17.15;10.88;;;13.00;88.60;;;;;;5031343;28;20052;-75
2021/04/30 12:33:54;;;;;;;17.42;11.85;;;13.10;88.80;;;;;;5031232;28;20034;-75